sensor_id;sensor_type;location;lat;lon;timestamp;temperature;humidity
18597;DHT22;9428;50.950;6.912;2022-10-19T00:01:02;12.80;99.90
18597;DHT22;9428;50.950;6.912;2022-10-19T00:03:52;12.30;99.90
18597;DHT22;9428;50.950;6.912;2022-10-19T00:06:39;12.50;99.90
18597;DHT22;9428;50.950;6.912;2022-10-19T00:09:26;12.40;99.90
18597;DHT22;9428;50.950;6.912;2022-10-19T00:12:14;12.50;99.90
18597;DHT22;9428;50.950;6.912;2022-10-19T00:15:03;12.20;99.90
18597;DHT22;9428;50.950;6.912;2022-10-19T00:17:52;12.40;99.90
18597;DHT22;9428;50.950;6.912;2022-10-19T00:20:39;12.30;99.90
18597;DHT22;9428;50.950;6.912;2022-10-19T00:23:26;12.10;99.90
18597;DHT22;9428;50.950;6.912;2022-10-19T00:26:13;12.20;99.90
18597;DHT22;9428;50.950;6.912;2022-10-19T00:29:01;12.00;99.90
18597;DHT22;9428;50.950;6.912;2022-10-19T00:31:48;12.40;99.90
18597;DHT22;9428;50.950;6.912;2022-10-19T00:34:37;12.50;99.90
18597;DHT22;9428;50.950;6.912;2022-10-19T00:37:24;12.40;99.90
18597;DHT22;9428;50.950;6.912;2022-10-19T00:40:12;12.40;99.90
18597;DHT22;9428;50.950;6.912;2022-10-19T00:42:59;12.30;99.90
18597;DHT22;9428;50.950;6.912;2022-10-19T00:45:46;12.30;99.90
18597;DHT22;9428;50.950;6.912;2022-10-19T00:48:33;12.60;99.90
18597;DHT22;9428;50.950;6.912;2022-10-19T00:51:23;12.40;99.90
18597;DHT22;9428;50.950;6.912;2022-10-19T00:54:11;12.30;99.90
18597;DHT22;9428;50.950;6.912;2022-10-19T00:56:59;12.90;99.90
18597;DHT22;9428;50.950;6.912;2022-10-19T00:59:47;12.30;99.90
18597;DHT22;9428;50.950;6.912;2022-10-19T01:02:35;12.20;99.90
18597;DHT22;9428;50.950;6.912;2022-10-19T01:05:22;12.10;99.90
18597;DHT22;9428;50.950;6.912;2022-10-19T01:08:11;12.10;99.90
18597;DHT22;9428;50.950;6.912;2022-10-19T01:11:06;11.90;99.90
18597;DHT22;9428;50.950;6.912;2022-10-19T01:14:08;12.10;99.90
18597;DHT22;9428;50.950;6.912;2022-10-19T01:17:07;12.00;99.90
18597;DHT22;9428;50.950;6.912;2022-10-19T01:20:14;12.00;99.90
18597;DHT22;9428;50.950;6.912;2022-10-19T01:23:26;12.00;99.90
18597;DHT22;9428;50.950;6.912;2022-10-19T01:26:30;11.90;99.90
18597;DHT22;9428;50.950;6.912;2022-10-19T01:29:34;11.90;
18597;DHT22;9428;50.950;6.912;2022-10-19T01:32:47;11.90;99.90
18597;DHT22;9428;50.950;6.912;2022-10-19T01:35:40;11.80;99.90
18597;DHT22;9428;50.950;6.912;2022-10-19T01:38:35;12.00;99.90
18597;DHT22;9428;50.950;6.912;2022-10-19T01:41:29;11.70;99.90
18597;DHT22;9428;50.950;6.912;2022-10-19T01:44:24;11.40;99.90
18597;DHT22;9428;50.950;6.912;2022-10-19T01:47:17;11.70;99.90
18597;DHT22;9428;50.950;6.912;2022-10-19T01:50:10;11.40;99.90
18597;DHT22;9428;50.950;6.912;2022-10-19T01:52:59;11.20;99.90
18597;DHT22;9428;50.950;6.912;2022-10-19T01:55:49;11.30;99.90
18597;DHT22;9428;50.950;6.912;2022-10-19T01:58:38;11.50;99.90
18597;DHT22;9428;50.950;6.912;2022-10-19T02:01:29;11.40;99.90
18597;DHT22;9428;50.950;6.912;2022-10-19T02:04:19;11.30;99.90
18597;DHT22;9428;50.950;6.912;2022-10-19T02:07:08;11.50;99.90
18597;DHT22;9428;50.950;6.912;2022-10-19T02:09:57;11.90;99.90
18597;DHT22;9428;50.950;6.912;2022-10-19T02:12:44;11.60;99.90
18597;DHT22;9428;50.950;6.912;2022-10-19T02:15:35;11.60;99.90
18597;DHT22;9428;50.950;6.912;2022-10-19T02:18:25;11.70;99.90
18597;DHT22;9428;50.950;6.912;2022-10-19T02:21:14;11.80;99.90
18597;DHT22;9428;50.950;6.912;2022-10-19T02:24:03;11.70;99.90
18597;DHT22;9428;50.950;6.912;2022-10-19T02:26:51;11.70;99.90
18597;DHT22;9428;50.950;6.912;2022-10-19T02:29:38;12.10;99.90
18597;DHT22;9428;50.950;6.912;2022-10-19T02:32:26;11.50;99.90
18597;DHT22;9428;50.950;6.912;2022-10-19T02:35:14;11.40;99.90
18597;DHT22;9428;50.950;6.912;2022-10-19T02:38:02;11.60;99.90
18597;DHT22;9428;50.950;6.912;2022-10-19T02:41:02;11.70;99.90
18597;DHT22;9428;50.950;6.912;2022-10-19T02:43:53;11.60;99.90
18597;DHT22;9428;50.950;6.912;2022-10-19T02:46:44;11.60;99.90
18597;DHT22;9428;50.950;6.912;2022-10-19T02:49:33;11.60;99.90
18597;DHT22;9428;50.950;6.912;2022-10-19T02:52:21;11.60;99.90
18597;DHT22;9428;50.950;6.912;2022-10-19T02:55:08;11.60;99.90
18597;DHT22;9428;50.950;6.912;2022-10-19T02:57:57;11.60;99.90
18597;DHT22;9428;50.950;6.912;2022-10-19T03:00:45;11.60;99.90
18597;DHT22;9428;50.950;6.912;2022-10-19T03:03:32;11.60;99.90
18597;DHT22;9428;50.950;6.912;2022-10-19T03:06:19;11.60;99.90
18597;DHT22;9428;50.950;6.912;2022-10-19T03:09:06;11.40;99.90
18597;DHT22;9428;50.950;6.912;2022-10-19T03:11:54;11.40;99.90
18597;DHT22;9428;50.950;6.912;2022-10-19T03:14:43;11.40;99.90
18597;DHT22;9428;50.950;6.912;2022-10-19T03:17:30;11.30;99.90
18597;DHT22;9428;50.950;6.912;2022-10-19T03:20:17;12.00;99.90
18597;DHT22;9428;50.950;6.912;2022-10-19T03:23:04;11.20;99.90
18597;DHT22;9428;50.950;6.912;2022-10-19T03:25:51;11.10;99.90
18597;DHT22;9428;50.950;6.912;2022-10-19T03:28:38;11.10;99.90
18597;DHT22;9428;50.950;6.912;2022-10-19T03:31:27;11.10;99.90
18597;DHT22;9428;50.950;6.912;2022-10-19T03:34:15;11.20;99.90
18597;DHT22;9428;50.950;6.912;2022-10-19T03:37:03;11.60;99.90
18597;DHT22;9428;50.950;6.912;2022-10-19T03:39:50;11.70;99.90
18597;DHT22;9428;50.950;6.912;2022-10-19T03:42:37;11.10;99.90
18597;DHT22;9428;50.950;6.912;2022-10-19T03:45:25;11.10;99.90
18597;DHT22;9428;50.950;6.912;2022-10-19T03:48:13;11.00;99.90
18597;DHT22;9428;50.950;6.912;2022-10-19T03:51:02;11.10;99.90
18597;DHT22;9428;50.950;6.912;2022-10-19T03:53:52;11.20;99.90
18597;DHT22;9428;50.950;6.912;2022-10-19T03:56:40;11.00;99.90
18597;DHT22;9428;50.950;6.912;2022-10-19T03:59:27;11.60;99.90
18597;DHT22;9428;50.950;6.912;2022-10-19T04:02:14;11.00;99.90
18597;DHT22;9428;50.950;6.912;2022-10-19T04:05:03;11.10;99.90
18597;DHT22;9428;50.950;6.912;2022-10-19T04:07:51;11.10;99.90
18597;DHT22;9428;50.950;6.912;2022-10-19T04:10:38;11.10;99.90
18597;DHT22;9428;50.950;6.912;2022-10-19T04:13:25;11.10;99.90
18597;DHT22;9428;50.950;6.912;2022-10-19T04:16:13;11.10;99.90
18597;DHT22;9428;50.950;6.912;2022-10-19T04:19:00;11.10;99.90
18597;DHT22;9428;50.950;6.912;2022-10-19T04:21:49;11.00;99.90
18597;DHT22;9428;50.950;6.912;2022-10-19T04:24:36;11.10;99.90
18597;DHT22;9428;50.950;6.912;2022-10-19T04:27:23;11.20;99.90
18597;DHT22;9428;50.950;6.912;2022-10-19T04:30:10;11.00;99.90
18597;DHT22;9428;50.950;6.912;2022-10-19T04:32:57;11.50;99.90
18597;DHT22;9428;50.950;6.912;2022-10-19T04:35:45;10.80;99.90
18597;DHT22;9428;50.950;6.912;2022-10-19T04:38:34;10.60;99.90
18597;DHT22;9428;50.950;6.912;2022-10-19T04:41:21;11.00;99.90
18597;DHT22;9428;50.950;6.912;2022-10-19T04:44:09;10.80;99.90
18597;DHT22;9428;50.950;6.912;2022-10-19T04:46:56;10.90;99.90
18597;DHT22;9428;50.950;6.912;2022-10-19T04:49:43;11.00;99.90
18597;DHT22;9428;50.950;6.912;2022-10-19T04:52:30;11.00;99.90
18597;DHT22;9428;50.950;6.912;2022-10-19T04:55:21;11.00;99.90
18597;DHT22;9428;50.950;6.912;2022-10-19T04:58:08;11.40;99.90
18597;DHT22;9428;50.950;6.912;2022-10-19T05:00:55;11.00;99.90
18597;DHT22;9428;50.950;6.912;2022-10-19T05:03:43;11.00;99.90
18597;DHT22;9428;50.950;6.912;2022-10-19T05:06:30;10.90;99.90
18597;DHT22;9428;50.950;6.912;2022-10-19T05:09:18;10.90;99.90
18597;DHT22;9428;50.950;6.912;2022-10-19T05:12:06;10.90;99.90
18597;DHT22;9428;50.950;6.912;2022-10-19T05:14:53;10.90;99.90
18597;DHT22;9428;50.950;6.912;2022-10-19T05:17:40;11.00;99.90
18597;DHT22;9428;50.950;6.912;2022-10-19T05:20:28;10.90;99.90
18597;DHT22;9428;50.950;6.912;2022-10-19T05:23:15;10.90;99.90
18597;DHT22;9428;50.950;6.912;2022-10-19T05:26:04;10.80;99.90
18597;DHT22;9428;50.950;6.912;2022-10-19T05:28:54;10.70;99.90
18597;DHT22;9428;50.950;6.912;2022-10-19T05:31:42;10.80;99.90
18597;DHT22;9428;50.950;6.912;2022-10-19T05:34:30;10.70;99.90
18597;DHT22;9428;50.950;6.912;2022-10-19T05:37:17;10.60;99.90
18597;DHT22;9428;50.950;6.912;2022-10-19T05:40:05;10.90;99.90
18597;DHT22;9428;50.950;6.912;2022-10-19T05:42:53;10.20;99.90
18597;DHT22;9428;50.950;6.912;2022-10-19T05:45:44;10.20;99.90
18597;DHT22;9428;50.950;6.912;2022-10-19T05:48:32;10.10;99.90
18597;DHT22;9428;50.950;6.912;2022-10-19T05:51:20;10.20;99.90
18597;DHT22;9428;50.950;6.912;2022-10-19T05:54:09;10.20;99.90
18597;DHT22;9428;50.950;6.912;2022-10-19T05:56:56;10.20;99.90
18597;DHT22;9428;50.950;6.912;2022-10-19T05:59:43;10.20;99.90
18597;DHT22;9428;50.950;6.912;2022-10-19T06:02:32;10.30;99.90
18597;DHT22;9428;50.950;6.912;2022-10-19T06:05:19;10.30;99.90
18597;DHT22;9428;50.950;6.912;2022-10-19T06:08:08;10.20;99.90
18597;DHT22;9428;50.950;6.912;2022-10-19T06:11:04;10.30;99.90
18597;DHT22;9428;50.950;6.912;2022-10-19T06:13:53;10.30;99.90
18597;DHT22;9428;50.950;6.912;2022-10-19T06:16:41;10.10;99.90
18597;DHT22;9428;50.950;6.912;2022-10-19T06:19:31;10.70;99.90
18597;DHT22;9428;50.950;6.912;2022-10-19T06:22:19;10.20;99.90
18597;DHT22;9428;50.950;6.912;2022-10-19T06:25:07;10.30;99.90
18597;DHT22;9428;50.950;6.912;2022-10-19T06:27:54;10.30;99.90
18597;DHT22;9428;50.950;6.912;2022-10-19T06:30:41;10.30;99.90
18597;DHT22;9428;50.950;6.912;2022-10-19T06:33:29;10.40;99.90
18597;DHT22;9428;50.950;6.912;2022-10-19T06:36:19;10.40;99.90
18597;DHT22;9428;50.950;6.912;2022-10-19T06:39:06;10.30;99.90
18597;DHT22;9428;50.950;6.912;2022-10-19T06:41:53;10.40;99.90
18597;DHT22;9428;50.950;6.912;2022-10-19T06:44:41;10.50;99.90
18597;DHT22;9428;50.950;6.912;2022-10-19T06:47:29;10.40;99.90
18597;DHT22;9428;50.950;6.912;2022-10-19T06:50:17;10.30;99.90
18597;DHT22;9428;50.950;6.912;2022-10-19T06:53:06;10.30;99.90
18597;DHT22;9428;50.950;6.912;2022-10-19T06:55:56;10.50;99.90
18597;DHT22;9428;50.950;6.912;2022-10-19T06:58:44;10.30;99.90
18597;DHT22;9428;50.950;6.912;2022-10-19T07:01:31;10.30;99.90
18597;DHT22;9428;50.950;6.912;2022-10-19T07:04:18;10.50;99.90
18597;DHT22;9428;50.950;6.912;2022-10-19T07:07:05;10.60;99.90
18597;DHT22;9428;50.950;6.912;2022-10-19T07:09:54;10.60;99.90
18597;DHT22;9428;50.950;6.912;2022-10-19T07:12:41;10.60;99.90
18597;DHT22;9428;50.950;6.912;2022-10-19T07:15:28;10.50;99.90
18597;DHT22;9428;50.950;6.912;2022-10-19T07:18:15;10.60;99.90
18597;DHT22;9428;50.950;6.912;2022-10-19T07:21:05;10.40;99.90
18597;DHT22;9428;50.950;6.912;2022-10-19T07:23:52;10.40;99.90
18597;DHT22;9428;50.950;6.912;2022-10-19T07:26:41;10.60;99.90
18597;DHT22;9428;50.950;6.912;2022-10-19T07:29:28;10.50;99.90
18597;DHT22;9428;50.950;6.912;2022-10-19T07:32:15;10.70;99.90
18597;DHT22;9428;50.950;6.912;2022-10-19T07:35:03;10.70;99.90
18597;DHT22;9428;50.950;6.912;2022-10-19T07:37:50;10.70;99.90
18597;DHT22;9428;50.950;6.912;2022-10-19T07:40:37;10.70;99.90
18597;DHT22;9428;50.950;6.912;2022-10-19T07:43:26;10.70;99.90
18597;DHT22;9428;50.950;6.912;2022-10-19T07:46:15;10.70;99.90
18597;DHT22;9428;50.950;6.912;2022-10-19T07:49:04;10.80;99.90
18597;DHT22;9428;50.950;6.912;2022-10-19T07:51:52;10.90;99.90
18597;DHT22;9428;50.950;6.912;2022-10-19T07:54:40;10.80;99.90
18597;DHT22;9428;50.950;6.912;2022-10-19T07:57:28;11.00;99.90
18597;DHT22;9428;50.950;6.912;2022-10-19T08:00:17;10.90;99.90
18597;DHT22;9428;50.950;6.912;2022-10-19T08:03:04;10.90;99.90
18597;DHT22;9428;50.950;6.912;2022-10-19T08:05:51;10.90;99.90
18597;DHT22;9428;50.950;6.912;2022-10-19T08:08:38;11.10;99.90
18597;DHT22;9428;50.950;6.912;2022-10-19T08:11:28;11.10;99.90
18597;DHT22;9428;50.950;6.912;2022-10-19T08:14:16;11.20;99.90
18597;DHT22;9428;50.950;6.912;2022-10-19T08:17:05;11.20;99.90
18597;DHT22;9428;50.950;6.912;2022-10-19T08:19:53;11.30;99.90
18597;DHT22;9428;50.950;6.912;2022-10-19T08:22:40;11.30;99.90
18597;DHT22;9428;50.950;6.912;2022-10-19T08:25:29;11.30;99.90
18597;DHT22;9428;50.950;6.912;2022-10-19T08:28:17;11.40;99.90
18597;DHT22;9428;50.950;6.912;2022-10-19T08:31:11;11.40;99.90
18597;DHT22;9428;50.950;6.912;2022-10-19T08:34:00;11.40;99.90
18597;DHT22;9428;50.950;6.912;2022-10-19T08:36:47;11.50;99.90
18597;DHT22;9428;50.950;6.912;2022-10-19T08:39:34;11.50;99.90
18597;DHT22;9428;50.950;6.912;2022-10-19T08:42:26;11.90;99.90
18597;DHT22;9428;50.950;6.912;2022-10-19T08:45:39;11.50;99.90
18597;DHT22;9428;50.950;6.912;2022-10-19T08:48:28;11.60;99.90
18597;DHT22;9428;50.950;6.912;2022-10-19T08:51:19;11.70;99.90
18597;DHT22;9428;50.950;6.912;2022-10-19T08:54:11;11.90;99.90
18597;DHT22;9428;50.950;6.912;2022-10-19T08:57:05;11.70;99.90
18597;DHT22;9428;50.950;6.912;2022-10-19T09:00:00;11.70;99.90
18597;DHT22;9428;50.950;6.912;2022-10-19T09:02:57;11.90;99.90
18597;DHT22;9428;50.950;6.912;2022-10-19T09:05:52;11.80;99.90
18597;DHT22;9428;50.950;6.912;2022-10-19T09:08:44;11.80;99.90
18597;DHT22;9428;50.950;6.912;2022-10-19T09:11:36;11.80;99.90
18597;DHT22;9428;50.950;6.912;2022-10-19T09:14:27;11.80;99.90
18597;DHT22;9428;50.950;6.912;2022-10-19T09:17:17;11.90;99.90
18597;DHT22;9428;50.950;6.912;2022-10-19T09:20:17;12.00;99.90
18597;DHT22;9428;50.950;6.912;2022-10-19T09:23:15;11.90;99.90
18597;DHT22;9428;50.950;6.912;2022-10-19T09:26:12;12.00;99.90
18597;DHT22;9428;50.950;6.912;2022-10-19T09:29:05;11.90;99.90
18597;DHT22;9428;50.950;6.912;2022-10-19T09:31:55;12.30;99.90
18597;DHT22;9428;50.950;6.912;2022-10-19T09:34:47;12.00;99.90
18597;DHT22;9428;50.950;6.912;2022-10-19T09:37:39;12.00;99.90
18597;DHT22;9428;50.950;6.912;2022-10-19T09:40:29;12.40;99.90
18597;DHT22;9428;50.950;6.912;2022-10-19T09:43:19;12.20;99.90
18597;DHT22;9428;50.950;6.912;2022-10-19T09:46:11;12.30;99.90
18597;DHT22;9428;50.950;6.912;2022-10-19T09:49:00;12.30;99.90
18597;DHT22;9428;50.950;6.912;2022-10-19T09:51:50;12.40;99.90
18597;DHT22;9428;50.950;6.912;2022-10-19T09:54:38;12.30;99.90
18597;DHT22;9428;50.950;6.912;2022-10-19T09:57:25;12.40;99.90
18597;DHT22;9428;50.950;6.912;2022-10-19T10:00:18;12.40;99.90
18597;DHT22;9428;50.950;6.912;2022-10-19T10:03:06;12.40;99.90
18597;DHT22;9428;50.950;6.912;2022-10-19T10:05:56;12.60;99.90
18597;DHT22;9428;50.950;6.912;2022-10-19T10:08:46;12.60;99.90
18597;DHT22;9428;50.950;6.912;2022-10-19T10:11:35;12.60;99.90
18597;DHT22;9428;50.950;6.912;2022-10-19T10:14:27;12.90;99.90
18597;DHT22;9428;50.950;6.912;2022-10-19T10:17:19;12.70;99.90
18597;DHT22;9428;50.950;6.912;2022-10-19T10:20:20;12.70;99.90
18597;DHT22;9428;50.950;6.912;2022-10-19T10:23:23;12.80;99.90
18597;DHT22;9428;50.950;6.912;2022-10-19T10:26:17;13.30;99.90
18597;DHT22;9428;50.950;6.912;2022-10-19T10:29:17;12.90;99.90
18597;DHT22;9428;50.950;6.912;2022-10-19T10:32:07;13.30;99.90
18597;DHT22;9428;50.950;6.912;2022-10-19T10:35:02;12.90;99.90
18597;DHT22;9428;50.950;6.912;2022-10-19T10:37:50;12.90;99.90
18597;DHT22;9428;50.950;6.912;2022-10-19T10:40:38;12.90;99.90
18597;DHT22;9428;50.950;6.912;2022-10-19T10:43:29;13.00;99.90
18597;DHT22;9428;50.950;6.912;2022-10-19T10:46:20;13.10;99.90
18597;DHT22;9428;50.950;6.912;2022-10-19T10:49:18;13.10;99.90
18597;DHT22;9428;50.950;6.912;2022-10-19T10:52:10;13.10;99.90
18597;DHT22;9428;50.950;6.912;2022-10-19T10:55:00;13.50;99.90
18597;DHT22;9428;50.950;6.912;2022-10-19T10:57:51;13.30;99.90
18597;DHT22;9428;50.950;6.912;2022-10-19T11:00:40;13.40;99.90
18597;DHT22;9428;50.950;6.912;2022-10-19T11:03:28;13.60;99.90
18597;DHT22;9428;50.950;6.912;2022-10-19T11:06:16;13.80;99.90
18597;DHT22;9428;50.950;6.912;2022-10-19T11:09:11;13.40;99.90
18597;DHT22;9428;50.950;6.912;2022-10-19T11:12:02;13.50;99.90
18597;DHT22;9428;50.950;6.912;2022-10-19T11:14:56;13.50;99.90
18597;DHT22;9428;50.950;6.912;2022-10-19T11:17:53;13.60;99.90
18597;DHT22;9428;50.950;6.912;2022-10-19T11:20:48;13.50;99.90
18597;DHT22;9428;50.950;6.912;2022-10-19T11:23:50;13.70;99.90
18597;DHT22;9428;50.950;6.912;2022-10-19T11:26:51;13.80;99.90
18597;DHT22;9428;50.950;6.912;2022-10-19T11:29:48;13.80;99.90
18597;DHT22;9428;50.950;6.912;2022-10-19T11:32:51;13.70;99.90
18597;DHT22;9428;50.950;6.912;2022-10-19T11:35:46;13.80;99.90
18597;DHT22;9428;50.950;6.912;2022-10-19T11:38:46;13.80;99.90
18597;DHT22;9428;50.950;6.912;2022-10-19T11:41:38;13.90;99.90
18597;DHT22;9428;50.950;6.912;2022-10-19T11:44:40;13.90;99.90
18597;DHT22;9428;50.950;6.912;2022-10-19T11:47:48;13.90;99.90
18597;DHT22;9428;50.950;6.912;2022-10-19T11:50:47;14.00;99.90
18597;DHT22;9428;50.950;6.912;2022-10-19T11:53:43;14.10;99.90
18597;DHT22;9428;50.950;6.912;2022-10-19T11:56:40;14.10;99.90
18597;DHT22;9428;50.950;6.912;2022-10-19T11:59:39;14.00;99.90
18597;DHT22;9428;50.950;6.912;2022-10-19T12:03:03;14.00;99.90
18597;DHT22;9428;50.950;6.912;2022-10-19T12:06:06;14.00;99.90
18597;DHT22;9428;50.950;6.912;2022-10-19T12:09:08;14.10;99.90
18597;DHT22;9428;50.950;6.912;2022-10-19T12:12:23;14.00;99.90
18597;DHT22;9428;50.950;6.912;2022-10-19T12:15:21;14.20;99.90
18597;DHT22;9428;50.950;6.912;2022-10-19T12:18:14;14.20;99.90
18597;DHT22;9428;50.950;6.912;2022-10-19T12:21:08;14.30;99.90
18597;DHT22;9428;50.950;6.912;2022-10-19T12:23:57;14.30;99.90
18597;DHT22;9428;50.950;6.912;2022-10-19T12:26:46;14.40;99.90
18597;DHT22;9428;50.950;6.912;2022-10-19T12:29:36;14.30;99.90
18597;DHT22;9428;50.950;6.912;2022-10-19T12:32:27;14.40;99.90
18597;DHT22;9428;50.950;6.912;2022-10-19T12:35:26;14.50;99.90
18597;DHT22;9428;50.950;6.912;2022-10-19T12:38:20;14.90;99.90
18597;DHT22;9428;50.950;6.912;2022-10-19T12:41:19;14.60;99.90
18597;DHT22;9428;50.950;6.912;2022-10-19T12:47:23;14.80;99.90
18597;DHT22;9428;50.950;6.912;2022-10-19T12:50:12;14.60;99.90
18597;DHT22;9428;50.950;6.912;2022-10-19T12:52:59;14.50;99.90
18597;DHT22;9428;50.950;6.912;2022-10-19T12:55:58;15.20;99.90
18597;DHT22;9428;50.950;6.912;2022-10-19T12:58:51;14.60;99.90
18597;DHT22;9428;50.950;6.912;2022-10-19T13:01:42;14.60;99.90
18597;DHT22;9428;50.950;6.912;2022-10-19T13:04:31;14.60;99.90
18597;DHT22;9428;50.950;6.912;2022-10-19T13:07:21;14.50;99.90
18597;DHT22;9428;50.950;6.912;2022-10-19T13:10:18;14.50;99.90
18597;DHT22;9428;50.950;6.912;2022-10-19T13:17:00;14.70;99.90
18597;DHT22;9428;50.950;6.912;2022-10-19T13:19:47;14.70;99.90
18597;DHT22;9428;50.950;6.912;2022-10-19T13:22:36;14.80;99.90
18597;DHT22;9428;50.950;6.912;2022-10-19T13:25:26;14.70;99.90
18597;DHT22;9428;50.950;6.912;2022-10-19T13:28:36;14.80;99.90
18597;DHT22;9428;50.950;6.912;2022-10-19T13:31:26;14.80;99.90
18597;DHT22;9428;50.950;6.912;2022-10-19T13:34:14;14.70;99.90
18597;DHT22;9428;50.950;6.912;2022-10-19T13:37:02;14.90;99.90
18597;DHT22;9428;50.950;6.912;2022-10-19T13:39:51;15.70;99.90
18597;DHT22;9428;50.950;6.912;2022-10-19T13:42:38;15.50;99.90
18597;DHT22;9428;50.950;6.912;2022-10-19T13:45:25;14.90;99.90
18597;DHT22;9428;50.950;6.912;2022-10-19T13:48:19;14.90;99.90
18597;DHT22;9428;50.950;6.912;2022-10-19T13:51:18;15.00;99.90
18597;DHT22;9428;50.950;6.912;2022-10-19T13:54:17;15.10;99.90
18597;DHT22;9428;50.950;6.912;2022-10-19T13:57:17;15.30;99.90
18597;DHT22;9428;50.950;6.912;2022-10-19T14:00:13;15.10;99.90
18597;DHT22;9428;50.950;6.912;2022-10-19T14:03:15;15.20;99.90
18597;DHT22;9428;50.950;6.912;2022-10-19T14:06:15;15.20;99.90
18597;DHT22;9428;50.950;6.912;2022-10-19T14:09:25;15.40;99.90
18597;DHT22;9428;50.950;6.912;2022-10-19T14:12:21;15.40;99.90
18597;DHT22;9428;50.950;6.912;2022-10-19T14:15:20;15.80;99.90
18597;DHT22;9428;50.950;6.912;2022-10-19T14:18:21;15.30;99.90
18597;DHT22;9428;50.950;6.912;2022-10-19T14:21:10;15.20;99.90
18597;DHT22;9428;50.950;6.912;2022-10-19T14:23:57;15.40;99.90
18597;DHT22;9428;50.950;6.912;2022-10-19T14:26:45;15.50;99.90
18597;DHT22;9428;50.950;6.912;2022-10-19T14:29:41;16.00;99.90
18597;DHT22;9428;50.950;6.912;2022-10-19T14:32:32;15.70;99.90
18597;DHT22;9428;50.950;6.912;2022-10-19T14:35:22;16.20;99.90
18597;DHT22;9428;50.950;6.912;2022-10-19T14:38:16;15.40;99.90
18597;DHT22;9428;50.950;6.912;2022-10-19T14:41:06;15.50;99.90
18597;DHT22;9428;50.950;6.912;2022-10-19T14:47:25;15.50;99.90
18597;DHT22;9428;50.950;6.912;2022-10-19T14:50:15;15.70;99.90
18597;DHT22;9428;50.950;6.912;2022-10-19T14:53:15;15.90;99.90
18597;DHT22;9428;50.950;6.912;2022-10-19T14:56:07;15.60;99.90
18597;DHT22;9428;50.950;6.912;2022-10-19T14:58:58;16.40;99.90
18597;DHT22;9428;50.950;6.912;2022-10-19T15:01:48;16.30;99.90
18597;DHT22;9428;50.950;6.912;2022-10-19T15:04:37;15.80;99.90
18597;DHT22;9428;50.950;6.912;2022-10-19T15:07:29;15.80;99.90
18597;DHT22;9428;50.950;6.912;2022-10-19T15:10:21;16.40;99.90
18597;DHT22;9428;50.950;6.912;2022-10-19T15:13:18;15.80;99.90
18597;DHT22;9428;50.950;6.912;2022-10-19T15:16:28;15.80;99.90
18597;DHT22;9428;50.950;6.912;2022-10-19T15:19:22;15.90;99.90
18597;DHT22;9428;50.950;6.912;2022-10-19T15:22:19;16.20;99.90
18597;DHT22;9428;50.950;6.912;2022-10-19T15:25:28;15.70;99.90
18597;DHT22;9428;50.950;6.912;2022-10-19T15:28:19;15.60;99.90
18597;DHT22;9428;50.950;6.912;2022-10-19T15:31:14;15.70;99.90
18597;DHT22;9428;50.950;6.912;2022-10-19T15:34:02;15.60;99.90
18597;DHT22;9428;50.950;6.912;2022-10-19T15:36:53;15.50;99.90
18597;DHT22;9428;50.950;6.912;2022-10-19T15:39:42;16.00;99.90
18597;DHT22;9428;50.950;6.912;2022-10-19T15:42:35;15.50;99.90
18597;DHT22;9428;50.950;6.912;2022-10-19T15:45:32;16.00;99.90
18597;DHT22;9428;50.950;6.912;2022-10-19T15:48:27;15.40;99.90
18597;DHT22;9428;50.950;6.912;2022-10-19T15:51:34;15.40;99.90
18597;DHT22;9428;50.950;6.912;2022-10-19T15:54:21;15.50;99.90
18597;DHT22;9428;50.950;6.912;2022-10-19T15:57:29;15.50;99.90
18597;DHT22;9428;50.950;6.912;2022-10-19T16:00:17;15.50;99.90
18597;DHT22;9428;50.950;6.912;2022-10-19T16:03:05;15.40;99.90
18597;DHT22;9428;50.950;6.912;2022-10-19T16:05:52;15.30;99.90
18597;DHT22;9428;50.950;6.912;2022-10-19T16:08:39;15.30;99.90
18597;DHT22;9428;50.950;6.912;2022-10-19T16:11:27;15.30;99.90
18597;DHT22;9428;50.950;6.912;2022-10-19T16:14:16;15.20;99.90
18597;DHT22;9428;50.950;6.912;2022-10-19T16:17:03;15.10;99.90
18597;DHT22;9428;50.950;6.912;2022-10-19T16:19:50;15.80;99.90
18597;DHT22;9428;50.950;6.912;2022-10-19T16:22:37;15.20;99.90
18597;DHT22;9428;50.950;6.912;2022-10-19T16:25:25;15.00;99.90
18597;DHT22;9428;50.950;6.912;2022-10-19T16:28:12;15.60;99.90
18597;DHT22;9428;50.950;6.912;2022-10-19T16:31:00;15.20;99.90
18597;DHT22;9428;50.950;6.912;2022-10-19T16:33:48;15.00;99.90
18597;DHT22;9428;50.950;6.912;2022-10-19T16:36:35;15.00;99.90
18597;DHT22;9428;50.950;6.912;2022-10-19T16:39:22;14.90;99.90
18597;DHT22;9428;50.950;6.912;2022-10-19T16:42:10;15.70;99.90
18597;DHT22;9428;50.950;6.912;2022-10-19T16:44:57;14.90;99.90
18597;DHT22;9428;50.950;6.912;2022-10-19T16:47:49;14.90;99.90
18597;DHT22;9428;50.950;6.912;2022-10-19T16:50:36;14.80;99.90
18597;DHT22;9428;50.950;6.912;2022-10-19T16:53:24;14.90;99.90
18597;DHT22;9428;50.950;6.912;2022-10-19T16:56:12;14.90;99.90
18597;DHT22;9428;50.950;6.912;2022-10-19T16:59:00;14.80;99.90
18597;DHT22;9428;50.950;6.912;2022-10-19T17:01:48;14.50;99.90
18597;DHT22;9428;50.950;6.912;2022-10-19T17:04:37;15.00;99.90
18597;DHT22;9428;50.950;6.912;2022-10-19T17:07:24;14.80;99.90
18597;DHT22;9428;50.950;6.912;2022-10-19T17:10:12;14.70;99.90
18597;DHT22;9428;50.950;6.912;2022-10-19T17:13:00;14.60;99.90
18597;DHT22;9428;50.950;6.912;2022-10-19T17:15:47;14.70;99.90
18597;DHT22;9428;50.950;6.912;2022-10-19T17:18:35;14.70;99.90
18597;DHT22;9428;50.950;6.912;2022-10-19T17:21:25;14.70;99.90
18597;DHT22;9428;50.950;6.912;2022-10-19T17:24:14;14.60;99.90
18597;DHT22;9428;50.950;6.912;2022-10-19T17:27:02;14.60;99.90
18597;DHT22;9428;50.950;6.912;2022-10-19T17:29:49;14.50;99.90
18597;DHT22;9428;50.950;6.912;2022-10-19T17:32:36;14.50;99.90
18597;DHT22;9428;50.950;6.912;2022-10-19T17:35:23;14.40;99.90
18597;DHT22;9428;50.950;6.912;2022-10-19T17:38:12;14.40;99.90
18597;DHT22;9428;50.950;6.912;2022-10-19T17:41:05;14.40;99.90
18597;DHT22;9428;50.950;6.912;2022-10-19T17:43:52;14.40;99.90
18597;DHT22;9428;50.950;6.912;2022-10-19T17:46:40;14.30;99.90
18597;DHT22;9428;50.950;6.912;2022-10-19T17:49:27;14.30;99.90
18597;DHT22;9428;50.950;6.912;2022-10-19T17:52:15;14.30;99.90
18597;DHT22;9428;50.950;6.912;2022-10-19T17:55:04;14.20;99.90
18597;DHT22;9428;50.950;6.912;2022-10-19T17:57:52;14.20;99.90
18597;DHT22;9428;50.950;6.912;2022-10-19T18:00:39;14.20;99.90
18597;DHT22;9428;50.950;6.912;2022-10-19T18:03:28;14.10;99.90
18597;DHT22;9428;50.950;6.912;2022-10-19T18:06:18;14.10;99.90
18597;DHT22;9428;50.950;6.912;2022-10-19T18:09:07;14.40;99.90
18597;DHT22;9428;50.950;6.912;2022-10-19T18:11:56;14.10;99.90
18597;DHT22;9428;50.950;6.912;2022-10-19T18:14:44;14.10;99.90
18597;DHT22;9428;50.950;6.912;2022-10-19T18:17:31;14.20;99.90
18597;DHT22;9428;50.950;6.912;2022-10-19T18:20:18;14.40;99.90
18597;DHT22;9428;50.950;6.912;2022-10-19T18:23:05;14.00;99.90
18597;DHT22;9428;50.950;6.912;2022-10-19T18:25:52;13.90;99.90
18597;DHT22;9428;50.950;6.912;2022-10-19T18:28:41;13.90;99.90